Time;durP1;ratioP1;P1;durP2;ratioP2;P2;SDS_P1;SDS_P2;PMS_P1;PMS_P2;Temp;Humidity;BMP_temperature;BMP_pressure;BME280_temperature;BME280_humidity;BME280_pressure;Samples;Min_cycle;Max_cycle;Signal;HPM_P1;HPM_P2
2024/01/12 00:01:31;;;;;;;16.98;4.18;;;2.80;99.90;;;;;;5044143;28;20119;-46
2024/01/12 00:03:57;;;;;;;12.27;3.80;;;2.90;99.90;;;;;;5064275;28;20036;-48
2024/01/12 00:06:23;;;;;;;17.67;4.68;;;2.80;99.90;;;;;;5057078;28;20040;-48
2024/01/12 00:08:49;;;;;;;10.65;3.85;;;2.90;99.90;;;;;;5057722;28;20043;-52
2024/01/12 00:11:14;;;;;;;14.25;4.03;;;2.90;99.90;;;;;;5059077;28;20138;-50
2024/01/12 00:13:40;;;;;;;18.40;5.03;;;3.00;99.90;;;;;;5062872;28;20403;-49
2024/01/12 00:16:07;;;;;;;18.27;4.70;;;2.90;99.90;;;;;;5063984;28;20033;-48
2024/01/12 00:18:36;;;;;;;10.70;4.88;;;2.90;99.90;;;;;;5062804;28;20047;-47
2024/01/12 00:21:02;;;;;;;11.60;4.88;;;2.80;99.90;;;;;;5062947;28;20043;-49
2024/01/12 00:23:28;;;;;;;14.80;5.57;;;2.90;99.90;;;;;;5057081;28;20040;-51
2024/01/12 00:25:59;;;;;;;11.80;5.70;;;3.00;99.90;;;;;;5061725;28;20040;-47
2024/01/12 00:28:27;;;;;;;12.82;5.47;;;3.00;99.90;;;;;;5059952;28;20414;-49
2024/01/12 00:30:53;;;;;;;16.23;5.53;;;3.00;99.90;;;;;;5063660;28;20063;-48
2024/01/12 00:33:18;;;;;;;10.98;4.93;;;3.00;99.90;;;;;;5057717;28;20037;-48
2024/01/12 00:35:44;;;;;;;15.35;5.60;;;3.00;99.90;;;;;;5063083;28;20532;-51
2024/01/12 00:38:10;;;;;;;14.35;4.80;;;3.00;99.90;;;;;;5061468;28;20048;-51
2024/01/12 00:40:36;;;;;;;12.95;4.40;;;3.00;99.90;;;;;;5060838;28;20044;-49
2024/01/12 00:43:02;;;;;;;18.33;5.03;;;3.10;99.90;;;;;;5060479;28;20048;-47
2024/01/12 00:45:28;;;;;;;14.02;4.50;;;3.00;99.90;;;;;;5060101;28;20072;-50
2024/01/12 00:47:53;;;;;;;9.68;4.43;;;3.00;99.90;;;;;;5062421;28;20048;-49
2024/01/12 00:50:19;;;;;;;10.60;4.25;;;3.10;99.90;;;;;;5058216;28;20033;-52
2024/01/12 00:52:45;;;;;;;7.88;4.10;;;3.10;99.90;;;;;;5058311;28;20051;-48
2024/01/12 00:55:11;;;;;;;12.45;4.82;;;3.10;99.90;;;;;;5060216;28;20032;-50
2024/01/12 00:57:37;;;;;;;10.57;4.32;;;3.20;99.90;;;;;;5063105;28;20240;-49
2024/01/12 01:00:04;;;;;;;11.63;4.32;;;3.20;99.90;;;;;;5066397;28;20119;-49
2024/01/12 01:02:30;;;;;;;11.55;4.25;;;3.20;99.90;;;;;;5060535;28;20499;-48
2024/01/12 01:04:56;;;;;;;8.65;4.03;;;3.20;99.90;;;;;;5061546;28;20264;-49
2024/01/12 01:07:22;;;;;;;14.23;4.40;;;3.20;99.90;;;;;;5056260;28;20056;-51
2024/01/12 01:09:48;;;;;;;9.60;4.15;;;3.30;99.90;;;;;;5060692;28;20097;-49
2024/01/12 01:12:14;;;;;;;10.93;4.28;;;3.30;99.90;;;;;;5054230;28;20052;-47
2024/01/12 01:14:40;;;;;;;13.98;4.43;;;3.30;99.90;;;;;;5058808;28;20206;-49
2024/01/12 01:17:06;;;;;;;12.77;4.35;;;3.30;99.90;;;;;;5060559;28;20040;-49
2024/01/12 01:19:32;;;;;;;11.68;3.72;;;3.30;99.90;;;;;;5058694;28;20579;-47
2024/01/12 01:21:57;;;;;;;8.23;3.58;;;3.30;99.90;;;;;;5063144;28;20441;-48
2024/01/12 01:24:29;;;;;;;16.60;4.20;;;3.30;99.90;;;;;;5056316;28;20049;-48
2024/01/12 01:26:55;;;;;;;7.43;3.63;;;3.20;99.90;;;;;;5058255;28;20048;-46
2024/01/12 01:29:21;;;;;;;11.82;3.92;;;3.20;99.90;;;;;;5057169;28;20462;-47
2024/01/12 01:31:47;;;;;;;14.45;4.10;;;3.30;99.90;;;;;;5057818;28;20672;-50
2024/01/12 01:34:14;;;;;;;7.88;3.55;;;3.20;99.90;;;;;;5059528;28;20087;-46
2024/01/12 01:36:40;;;;;;;9.82;3.05;;;3.30;99.90;;;;;;5061859;28;20500;-46
2024/01/12 01:39:06;;;;;;;6.72;3.30;;;3.20;99.90;;;;;;5048839;28;20411;-47
2024/01/12 01:41:31;;;;;;;10.63;3.40;;;3.20;99.90;;;;;;5053555;28;20044;-49
2024/01/12 01:43:57;;;;;;;15.85;3.63;;;3.20;99.90;;;;;;5063812;28;20044;-49
2024/01/12 01:46:23;;;;;;;9.30;3.28;;;3.20;99.90;;;;;;5059658;28;20250;-48
2024/01/12 01:48:49;;;;;;;10.82;4.35;;;3.20;99.90;;;;;;5056961;28;20051;-48
2024/01/12 01:51:16;;;;;;;8.80;2.85;;;3.20;99.90;;;;;;5054667;28;20051;-48
2024/01/12 01:53:42;;;;;;;11.98;3.50;;;3.20;99.90;;;;;;5060086;28;20091;-49
2024/01/12 01:56:11;;;;;;;9.23;3.92;;;3.20;99.90;;;;;;5060315;28;20040;-49
2024/01/12 01:58:36;;;;;;;11.10;3.85;;;3.20;99.90;;;;;;5061393;28;20048;-48
2024/01/12 02:01:03;;;;;;;6.90;3.55;;;3.10;99.90;;;;;;5059530;28;20094;-47
2024/01/12 02:03:29;;;;;;;11.65;3.85;;;3.00;99.90;;;;;;5056818;28;20522;-48
2024/01/12 02:05:57;;;;;;;11.27;3.60;;;3.10;99.90;;;;;;5057638;28;20707;-48
2024/01/12 02:08:24;;;;;;;11.05;3.33;;;3.00;99.90;;;;;;5063927;28;20132;-50
2024/01/12 02:10:52;;;;;;;6.45;3.15;;;3.00;99.90;;;;;;5058687;28;20037;-47
2024/01/12 02:13:18;;;;;;;6.45;3.20;;;3.00;99.90;;;;;;5068219;28;20048;-49
2024/01/12 02:15:44;;;;;;;9.10;3.78;;;3.10;99.90;;;;;;5067338;28;20033;-46
2024/01/12 02:18:10;;;;;;;9.75;3.78;;;3.10;99.90;;;;;;5065773;28;20105;-47
2024/01/12 02:20:36;;;;;;;9.88;3.92;;;3.00;99.90;;;;;;5044267;28;20607;-49
2024/01/12 02:23:02;;;;;;;7.60;3.78;;;3.00;99.90;;;;;;5064921;28;20050;-47
2024/01/12 02:25:27;;;;;;;11.00;4.05;;;3.00;99.90;;;;;;5067707;28;20146;-48
2024/01/12 02:27:53;;;;;;;13.25;4.15;;;3.00;99.90;;;;;;5067859;28;20137;-48
2024/01/12 02:30:19;;;;;;;12.25;4.10;;;3.00;99.90;;;;;;5068530;28;20045;-49
2024/01/12 02:32:45;;;;;;;8.07;3.65;;;2.90;99.90;;;;;;5063212;28;20029;-49
2024/01/12 02:35:10;;;;;;;8.00;4.20;;;2.90;99.90;;;;;;5068382;28;20031;-49
2024/01/12 02:37:36;;;;;;;11.50;4.60;;;2.90;99.90;;;;;;5063866;28;20482;-50
2024/01/12 02:40:03;;;;;;;12.88;3.78;;;3.00;99.90;;;;;;5061270;28;20548;-46
2024/01/12 02:42:28;;;;;;;11.20;3.75;;;3.00;99.90;;;;;;5068322;28;20509;-49
2024/01/12 02:44:54;;;;;;;11.85;4.47;;;3.00;99.90;;;;;;5065422;28;20036;-47
2024/01/12 02:47:20;;;;;;;11.25;3.72;;;2.90;99.90;;;;;;5058141;28;20046;-48
2024/01/12 02:49:45;;;;;;;12.02;3.88;;;2.80;99.90;;;;;;5065681;28;20464;-49
2024/01/12 02:52:11;;;;;;;12.25;4.03;;;2.80;99.90;;;;;;5068047;28;20117;-47
2024/01/12 02:54:37;;;;;;;10.73;3.85;;;2.70;99.90;;;;;;5068937;28;20080;-48
2024/01/12 02:57:03;;;;;;;9.77;4.38;;;2.80;99.90;;;;;;5069845;28;20094;-49
2024/01/12 02:59:28;;;;;;;10.35;3.80;;;2.70;99.90;;;;;;5062715;28;20049;-48
2024/01/12 03:01:54;;;;;;;7.63;3.55;;;2.70;99.90;;;;;;5067404;28;20502;-47
2024/01/12 03:04:20;;;;;;;10.75;4.70;;;2.70;99.90;;;;;;5068876;28;20049;-46
2024/01/12 03:06:45;;;;;;;10.68;3.45;;;2.50;99.90;;;;;;5064909;28;20041;-47
2024/01/12 03:09:11;;;;;;;9.10;3.65;;;2.50;99.90;;;;;;5062572;28;20032;-48
2024/01/12 03:11:37;;;;;;;10.13;3.65;;;2.40;99.90;;;;;;5067762;28;20040;-49
2024/01/12 03:14:03;;;;;;;10.57;4.32;;;2.40;99.90;;;;;;5062571;28;20044;-47
2024/01/12 03:16:28;;;;;;;10.85;3.70;;;2.40;99.90;;;;;;5065647;28;20040;-49
2024/01/12 03:18:54;;;;;;;8.95;4.18;;;2.50;99.90;;;;;;5068467;28;20181;-49
2024/01/12 03:21:20;;;;;;;11.85;4.85;;;2.60;99.90;;;;;;5067206;28;20099;-47
2024/01/12 03:23:47;;;;;;;9.50;4.68;;;2.60;99.90;;;;;;5059417;28;20178;-47
2024/01/12 03:26:13;;;;;;;9.77;4.68;;;2.70;99.90;;;;;;5063761;28;20044;-49
2024/01/12 03:28:39;;;;;;;11.88;3.67;;;2.60;99.90;;;;;;5049514;28;20036;-50
2024/01/12 03:31:06;;;;;;;6.88;3.83;;;2.60;99.90;;;;;;5064984;28;20442;-48
2024/01/12 03:33:32;;;;;;;10.68;4.00;;;2.60;99.90;;;;;;5063302;28;20076;-50
2024/01/12 03:35:58;;;;;;;9.45;4.07;;;2.70;99.90;;;;;;5064597;28;20032;-49
2024/01/12 03:38:25;;;;;;;10.05;3.97;;;2.70;99.90;;;;;;5059471;28;20490;-47
2024/01/12 03:40:51;;;;;;;9.75;4.38;;;2.70;99.90;;;;;;5056747;28;20044;-48
2024/01/12 03:43:16;;;;;;;15.27;4.38;;;2.70;99.90;;;;;;5064063;28;20049;-48
2024/01/12 03:45:42;;;;;;;17.70;4.75;;;2.70;99.90;;;;;;5063975;28;20169;-48
2024/01/12 03:48:08;;;;;;;12.00;4.53;;;2.70;99.90;;;;;;5064254;28;20194;-47
2024/01/12 03:50:33;;;;;;;12.75;4.80;;;2.70;99.90;;;;;;5063001;28;20040;-49
2024/01/12 03:52:59;;;;;;;15.32;5.07;;;2.70;99.90;;;;;;5063130;28;20036;-47
2024/01/12 03:55:25;;;;;;;8.40;3.83;;;2.70;99.90;;;;;;5057128;28;20037;-50
2024/01/12 03:57:51;;;;;;;15.38;4.35;;;2.70;99.90;;;;;;5060061;28;20048;-48
2024/01/12 04:00:16;;;;;;;10.90;4.03;;;2.70;99.90;;;;;;5062135;28;20430;-49
2024/01/12 04:02:42;;;;;;;10.88;4.20;;;2.70;99.90;;;;;;5063994;28;20047;-49
2024/01/12 04:05:09;;;;;;;11.18;4.30;;;2.70;99.90;;;;;;5064231;28;20083;-46
2024/01/12 04:07:35;;;;;;;12.40;3.92;;;2.70;99.90;;;;;;5064388;28;20041;-52
2024/01/12 04:10:01;;;;;;;9.55;4.25;;;2.80;99.90;;;;;;5059684;28;20094;-47
2024/01/12 04:12:26;;;;;;;14.48;5.00;;;2.80;99.90;;;;;;5065053;28;20075;-47
2024/01/12 04:14:52;;;;;;;13.90;4.88;;;2.80;99.90;;;;;;5064068;28;20043;-46
2024/01/12 04:17:18;;;;;;;14.05;4.70;;;2.90;99.90;;;;;;5063739;28;20419;-48
2024/01/12 04:19:43;;;;;;;12.48;4.20;;;2.90;99.90;;;;;;5061418;28;20098;-46
2024/01/12 04:22:09;;;;;;;15.30;5.03;;;3.00;99.90;;;;;;5046076;28;20263;-48
2024/01/12 04:24:35;;;;;;;16.80;4.95;;;3.00;99.90;;;;;;5065416;28;20204;-46
2024/01/12 04:27:00;;;;;;;11.57;5.65;;;3.10;99.90;;;;;;5063564;28;20097;-48
2024/01/12 04:29:26;;;;;;;13.77;4.95;;;3.10;99.90;;;;;;5062582;28;20124;-47
2024/01/12 04:31:52;;;;;;;12.13;4.35;;;3.00;99.90;;;;;;5059831;28;20043;-50
2024/01/12 04:34:17;;;;;;;13.50;4.47;;;3.10;99.90;;;;;;5057068;28;20044;-46
2024/01/12 04:36:43;;;;;;;12.57;4.15;;;3.10;99.90;;;;;;5064372;28;20249;-50
2024/01/12 04:39:09;;;;;;;13.93;4.97;;;3.00;99.90;;;;;;5063287;28;20384;-48
2024/01/12 04:41:35;;;;;;;13.57;4.72;;;3.00;99.90;;;;;;5063154;28;20051;-47
2024/01/12 04:44:01;;;;;;;17.77;4.32;;;3.00;99.90;;;;;;5061707;28;20041;-47
2024/01/12 04:46:28;;;;;;;13.23;4.30;;;3.00;99.90;;;;;;5054298;28;20043;-46
2024/01/12 04:48:54;;;;;;;16.52;5.32;;;2.90;99.90;;;;;;5062835;28;20036;-49
2024/01/12 04:51:20;;;;;;;12.60;4.57;;;2.90;99.90;;;;;;5062667;28;20041;-47
2024/01/12 04:53:46;;;;;;;16.45;5.10;;;3.00;99.90;;;;;;5061976;28;20036;-46
2024/01/12 04:56:11;;;;;;;20.58;5.32;;;3.00;99.90;;;;;;5056153;28;20040;-48
2024/01/12 04:58:38;;;;;;;17.85;5.47;;;3.00;99.90;;;;;;5060653;28;20040;-47
2024/01/12 05:01:04;;;;;;;22.23;5.30;;;3.00;99.90;;;;;;5062925;28;20120;-47
2024/01/12 05:03:30;;;;;;;16.58;5.15;;;3.00;99.90;;;;;;5058490;28;20495;-49
2024/01/12 05:05:55;;;;;;;13.43;5.38;;;3.00;99.90;;;;;;5062484;28;20112;-48
2024/01/12 05:08:21;;;;;;;17.73;5.38;;;2.90;99.90;;;;;;5062234;28;20127;-52
2024/01/12 05:10:47;;;;;;;13.88;4.60;;;2.90;99.90;;;;;;5063381;28;20037;-49
2024/01/12 05:13:12;;;;;;;13.68;4.82;;;2.90;99.90;;;;;;5056843;28;20032;-51
2024/01/12 05:15:38;;;;;;;15.00;5.07;;;2.90;99.90;;;;;;5052938;28;20116;-49
2024/01/12 05:18:04;;;;;;;17.70;4.50;;;2.90;99.90;;;;;;5063156;28;20579;-48
2024/01/12 05:20:30;;;;;;;16.35;4.85;;;2.90;99.90;;;;;;5059962;28;20055;-52
2024/01/12 05:22:55;;;;;;;14.60;5.43;;;2.90;99.90;;;;;;5060343;28;20040;-48
2024/01/12 05:25:21;;;;;;;10.10;4.15;;;2.90;99.90;;;;;;5054877;28;20513;-50
2024/01/12 05:27:47;;;;;;;13.50;4.25;;;3.00;99.90;;;;;;5060554;28;20039;-49
2024/01/12 05:30:13;;;;;;;14.38;4.70;;;3.00;99.90;;;;;;5055393;28;20048;-50
2024/01/12 05:32:39;;;;;;;14.77;4.80;;;3.00;99.90;;;;;;5061347;28;20072;-50
2024/01/12 05:35:05;;;;;;;13.13;5.20;;;3.00;99.90;;;;;;5061252;28;20569;-50
2024/01/12 05:37:30;;;;;;;13.95;5.97;;;2.90;99.90;;;;;;5061425;28;20520;-50
2024/01/12 05:39:56;;;;;;;12.68;5.60;;;3.00;99.90;;;;;;5062583;28;20463;-49
2024/01/12 05:42:22;;;;;;;22.30;4.53;;;2.90;99.90;;;;;;5069641;28;20158;-48
2024/01/12 05:44:47;;;;;;;26.85;5.82;;;2.90;99.90;;;;;;5061828;28;20045;-49
2024/01/12 05:47:13;;;;;;;13.50;4.20;;;2.90;99.90;;;;;;5057335;28;20439;-51
2024/01/12 05:49:39;;;;;;;17.98;5.28;;;2.90;99.90;;;;;;5059563;28;20040;-47
2024/01/12 05:52:05;;;;;;;13.88;5.50;;;2.90;99.90;;;;;;5060426;28;20047;-51
2024/01/12 05:54:31;;;;;;;22.23;5.82;;;2.80;99.90;;;;;;5052623;28;20029;-49
2024/01/12 05:56:57;;;;;;;13.13;5.18;;;2.90;99.90;;;;;;5055719;28;20051;-48
2024/01/12 05:59:22;;;;;;;22.10;5.40;;;2.90;99.90;;;;;;5055540;28;20059;-47
2024/01/12 06:01:48;;;;;;;15.23;5.78;;;2.80;99.90;;;;;;5059210;28;20040;-52
2024/01/12 06:04:14;;;;;;;24.13;6.18;;;2.90;99.90;;;;;;5060249;28;20122;-49
2024/01/12 06:06:43;;;;;;;12.15;5.40;;;2.90;99.90;;;;;;5058146;28;20105;-48
2024/01/12 06:09:08;;;;;;;20.65;6.10;;;2.90;99.90;;;;;;5059502;28;20443;-50
2024/01/12 06:11:34;;;;;;;18.90;6.10;;;3.00;99.90;;;;;;5058942;28;20120;-49
2024/01/12 06:14:01;;;;;;;19.27;5.80;;;2.90;99.90;;;;;;5058575;28;20029;-47
2024/01/12 06:16:26;;;;;;;15.60;6.30;;;3.00;99.90;;;;;;5055644;28;20067;-48
2024/01/12 06:18:52;;;;;;;22.48;5.75;;;2.90;99.90;;;;;;5047141;28;20033;-51
2024/01/12 06:21:18;;;;;;;21.75;5.70;;;3.00;99.90;;;;;;5058598;28;20043;-47
2024/01/12 06:23:43;;;;;;;20.45;5.53;;;3.10;99.90;;;;;;5059097;28;20584;-49
2024/01/12 06:26:09;;;;;;;15.00;5.90;;;3.00;99.90;;;;;;5047922;28;20426;-47
2024/01/12 06:28:35;;;;;;;11.93;6.03;;;3.00;99.90;;;;;;5058877;28;20036;-49
2024/01/12 06:31:01;;;;;;;13.85;5.63;;;3.00;99.90;;;;;;5059498;28;20067;-46
2024/01/12 06:33:28;;;;;;;20.60;6.65;;;3.10;99.90;;;;;;5058789;28;20047;-47
2024/01/12 06:35:54;;;;;;;15.73;5.63;;;3.20;99.90;;;;;;5054243;28;20135;-48
2024/01/12 06:38:19;;;;;;;17.58;5.97;;;3.10;99.90;;;;;;5057822;28;20037;-48
2024/01/12 06:40:46;;;;;;;17.33;5.25;;;3.10;99.90;;;;;;5057827;28;20043;-48
2024/01/12 06:43:11;;;;;;;22.13;6.95;;;3.10;99.90;;;;;;5059317;28;20235;-47
2024/01/12 06:45:37;;;;;;;17.75;5.35;;;3.20;99.90;;;;;;5052749;28;20062;-47
2024/01/12 06:48:03;;;;;;;15.32;5.15;;;3.30;99.90;;;;;;5057132;28;20504;-47
2024/01/12 06:50:29;;;;;;;19.73;5.57;;;3.20;99.90;;;;;;5053703;28;20603;-48
2024/01/12 06:52:56;;;;;;;24.45;5.25;;;3.30;99.90;;;;;;5058540;28;20044;-48
2024/01/12 06:55:22;;;;;;;27.02;5.50;;;3.30;99.90;;;;;;5056608;28;20097;-51
2024/01/12 06:57:47;;;;;;;15.55;5.38;;;3.30;99.90;;;;;;5059512;28;20036;-48
2024/01/12 07:00:15;;;;;;;22.35;4.82;;;3.50;99.90;;;;;;5061570;28;20040;-48
2024/01/12 07:02:40;;;;;;;26.88;5.72;;;3.40;99.90;;;;;;5063027;28;20582;-47
2024/01/12 07:05:07;;;;;;;24.77;6.30;;;3.40;99.90;;;;;;5059922;28;20606;-50
2024/01/12 07:07:33;;;;;;;18.83;6.28;;;3.30;99.90;;;;;;5061876;28;20036;-51
2024/01/12 07:09:59;;;;;;;27.73;6.80;;;3.50;99.90;;;;;;5056804;28;20514;-47
2024/01/12 07:12:24;;;;;;;20.02;6.85;;;3.50;99.90;;;;;;5062300;28;20523;-52
2024/01/12 07:14:50;;;;;;;15.82;7.15;;;3.50;99.90;;;;;;5062486;28;20170;-50
2024/01/12 07:17:16;;;;;;;22.50;6.95;;;3.50;99.90;;;;;;5062724;28;20128;-51
2024/01/12 07:19:43;;;;;;;24.10;7.45;;;3.60;99.90;;;;;;5061970;28;20051;-48
2024/01/12 07:22:09;;;;;;;24.02;7.35;;;3.60;99.90;;;;;;5061616;28;20032;-50
2024/01/12 07:24:35;;;;;;;28.25;6.85;;;3.60;99.90;;;;;;5058738;28;20040;-50
2024/01/12 07:27:01;;;;;;;19.30;5.75;;;3.70;99.90;;;;;;5055338;28;20052;-52
2024/01/12 07:29:26;;;;;;;22.65;6.15;;;3.70;99.90;;;;;;5059177;28;20048;-49
2024/01/12 07:31:52;;;;;;;25.15;6.45;;;3.70;99.90;;;;;;5062421;28;20054;-51
2024/01/12 07:34:18;;;;;;;29.35;6.50;;;3.80;99.90;;;;;;5062200;28;20124;-48
2024/01/12 07:36:44;;;;;;;21.42;6.57;;;3.80;99.90;;;;;;5062342;28;20041;-51
2024/01/12 07:39:10;;;;;;;24.08;5.85;;;3.80;99.90;;;;;;5061134;28;20043;-49
2024/01/12 07:41:36;;;;;;;12.93;5.20;;;3.90;99.90;;;;;;5051483;28;20468;-49
2024/01/12 07:44:01;;;;;;;22.95;5.40;;;3.90;99.90;;;;;;5060246;28;20072;-52
2024/01/12 07:46:28;;;;;;;24.48;5.35;;;3.90;99.90;;;;;;5061779;28;20086;-50
2024/01/12 07:48:56;;;;;;;25.98;6.35;;;3.90;99.90;;;;;;5060542;28;20052;-52
2024/01/12 07:51:22;;;;;;;24.08;6.03;;;4.00;99.90;;;;;;5062207;28;20036;-50
2024/01/12 07:53:48;;;;;;;22.33;6.43;;;4.00;99.90;;;;;;5061109;28;20047;-50
2024/01/12 07:56:14;;;;;;;20.73;5.10;;;4.10;99.90;;;;;;5062415;28;20040;-51
2024/01/12 07:58:39;;;;;;;14.75;3.75;;;4.00;99.90;;;;;;5061245;28;20040;-49
2024/01/12 08:01:11;;;;;;;16.63;3.30;;;4.10;99.90;;;;;;5062053;28;20673;-48
2024/01/12 08:03:36;;;;;;;23.75;3.60;;;4.10;99.90;;;;;;5049411;28;20044;-50
2024/01/12 08:06:02;;;;;;;17.98;2.65;;;4.20;99.90;;;;;;5062082;28;20036;-50
2024/01/12 08:08:28;;;;;;;20.20;2.90;;;4.30;99.90;;;;;;5060598;28;20094;-50
2024/01/12 08:10:54;;;;;;;15.95;2.60;;;4.30;99.90;;;;;;5060915;28;20055;-49
2024/01/12 08:13:20;;;;;;;21.58;3.30;;;4.40;99.90;;;;;;5061427;28;20491;-49
2024/01/12 08:15:45;;;;;;;14.32;3.35;;;4.40;99.90;;;;;;5060601;28;20152;-52
2024/01/12 08:18:11;;;;;;;13.40;2.85;;;4.40;99.90;;;;;;5059806;28;20074;-51
2024/01/12 08:20:37;;;;;;;13.85;2.65;;;4.50;99.90;;;;;;5061480;28;20491;-52
2024/01/12 08:23:03;;;;;;;20.30;2.67;;;4.50;99.90;;;;;;5060946;28;20071;-48
2024/01/12 08:25:29;;;;;;;12.82;2.45;;;4.40;99.90;;;;;;5060657;28;20040;-49
2024/01/12 08:27:55;;;;;;;17.25;3.38;;;4.40;99.90;;;;;;5059809;28;20127;-48
2024/01/12 08:30:20;;;;;;;16.15;3.40;;;4.40;99.90;;;;;;5060617;28;20983;-49
2024/01/12 08:32:46;;;;;;;14.02;2.20;;;4.50;99.90;;;;;;5059527;28;20037;-49
2024/01/12 08:35:12;;;;;;;14.38;2.80;;;4.40;99.90;;;;;;5060895;28;20033;-49
2024/01/12 08:37:38;;;;;;;18.73;2.75;;;4.50;99.90;;;;;;5059620;28;20381;-49
2024/01/12 08:40:04;;;;;;;18.48;2.42;;;4.40;99.90;;;;;;5059663;28;20571;-49
2024/01/12 08:42:30;;;;;;;18.02;3.40;;;4.40;99.90;;;;;;5060228;28;20473;-48
2024/01/12 08:44:55;;;;;;;10.32;3.30;;;4.50;99.90;;;;;;5058793;28;20040;-47
2024/01/12 08:47:21;;;;;;;19.52;4.22;;;4.50;99.90;;;;;;5059898;28;20238;-48
2024/01/12 08:49:47;;;;;;;18.70;4.05;;;4.50;99.90;;;;;;5058224;28;20837;-52
2024/01/12 08:52:13;;;;;;;18.20;3.47;;;4.60;99.90;;;;;;5049391;28;20036;-52
2024/01/12 08:54:38;;;;;;;20.27;3.53;;;4.60;99.90;;;;;;5059414;28;20047;-50
2024/01/12 08:57:04;;;;;;;19.00;3.83;;;4.60;99.90;;;;;;5060574;28;20336;-48
2024/01/12 08:59:30;;;;;;;16.20;3.53;;;4.70;99.90;;;;;;5059628;28;20040;-53
2024/01/12 09:01:57;;;;;;;14.63;3.67;;;4.70;99.90;;;;;;5060498;28;20037;-51
2024/01/12 09:04:23;;;;;;;17.10;2.95;;;4.70;99.90;;;;;;5059906;28;20079;-49
2024/01/12 09:06:49;;;;;;;20.40;2.88;;;4.70;99.90;;;;;;5060679;28;20036;-49
2024/01/12 09:09:15;;;;;;;20.55;2.40;;;4.70;99.90;;;;;;5059322;28;20055;-52
2024/01/12 09:11:40;;;;;;;17.38;2.67;;;4.80;99.90;;;;;;5044505;28;20098;-49
2024/01/12 09:14:06;;;;;;;17.05;2.70;;;4.70;99.90;;;;;;5057766;28;20052;-51
2024/01/12 09:16:32;;;;;;;34.10;6.45;;;4.70;99.90;;;;;;5059543;28;20042;-49
2024/01/12 09:18:58;;;;;;;19.77;6.38;;;4.70;99.90;;;;;;5059026;28;20127;-49
2024/01/12 09:21:24;;;;;;;19.15;6.30;;;4.80;99.90;;;;;;5058457;28;20496;-50
2024/01/12 09:23:50;;;;;;;22.63;7.38;;;4.80;99.90;;;;;;5060031;28;20039;-52
2024/01/12 09:26:16;;;;;;;24.45;7.53;;;4.80;99.90;;;;;;5058940;28;20052;-51
2024/01/12 09:28:41;;;;;;;21.65;6.82;;;4.80;99.90;;;;;;5059003;28;20037;-50
2024/01/12 09:31:08;;;;;;;20.45;6.65;;;4.80;99.90;;;;;;5054878;28;20024;-53
2024/01/12 09:33:33;;;;;;;25.58;5.72;;;4.90;99.90;;;;;;5053211;28;20127;-49
2024/01/12 09:36:00;;;;;;;18.42;5.28;;;4.90;99.90;;;;;;5057628;28;20041;-51
2024/01/12 09:38:25;;;;;;;20.65;4.07;;;4.90;99.90;;;;;;5057207;28;20303;-51
2024/01/12 09:40:51;;;;;;;19.45;3.83;;;5.00;99.90;;;;;;5049905;28;20079;-47
2024/01/12 09:43:22;;;;;;;23.77;3.33;;;5.00;99.90;;;;;;5053590;28;20339;-49
2024/01/12 09:45:50;;;;;;;23.30;3.45;;;4.90;99.90;;;;;;5048826;28;21237;-48
2024/01/12 09:48:16;;;;;;;18.45;3.75;;;5.00;99.90;;;;;;5046160;28;20043;-48
2024/01/12 09:50:43;;;;;;;19.67;3.70;;;5.00;99.90;;;;;;5033505;28;20035;-52
2024/01/12 09:53:09;;;;;;;18.25;3.95;;;5.00;99.90;;;;;;5054656;28;20033;-49
2024/01/12 09:55:35;;;;;;;16.38;3.00;;;5.00;99.90;;;;;;5057299;28;20447;-49
2024/01/12 09:58:02;;;;;;;15.77;2.47;;;5.00;99.90;;;;;;5060000;28;20490;-48
2024/01/12 10:00:31;;;;;;;17.05;3.38;;;5.00;99.90;;;;;;5059881;28;20040;-52
2024/01/12 10:02:58;;;;;;;16.60;2.28;;;5.10;99.90;;;;;;5057630;28;20486;-52
2024/01/12 10:05:25;;;;;;;17.58;3.85;;;5.10;99.90;;;;;;5058350;28;20109;-52
2024/01/12 10:07:50;;;;;;;14.00;2.33;;;5.10;99.90;;;;;;5040955;28;20055;-49
2024/01/12 10:10:16;;;;;;;21.73;2.95;;;5.20;99.90;;;;;;5046044;28;20044;-51
2024/01/12 10:12:47;;;;;;;17.27;2.10;;;5.20;99.90;;;;;;5054213;28;20037;-48
2024/01/12 10:15:12;;;;;;;20.23;3.05;;;5.20;99.90;;;;;;5058725;28;20036;-52
2024/01/12 10:17:38;;;;;;;20.10;2.60;;;5.20;99.90;;;;;;5028606;28;20159;-48
2024/01/12 10:20:06;;;;;;;15.98;3.40;;;5.30;99.90;;;;;;5050877;28;20051;-49
2024/01/12 10:22:32;;;;;;;11.80;3.15;;;5.30;99.90;;;;;;5044237;28;20555;-51
2024/01/12 10:24:58;;;;;;;21.65;3.88;;;5.30;99.90;;;;;;5057390;28;20186;-49
2024/01/12 10:27:24;;;;;;;22.98;3.00;;;5.20;99.90;;;;;;5058019;28;20056;-50
2024/01/12 10:29:50;;;;;;;21.55;3.63;;;5.20;99.90;;;;;;5048033;28;20515;-51
2024/01/12 10:32:19;;;;;;;13.80;2.88;;;5.20;99.90;;;;;;5057473;28;20037;-49
2024/01/12 10:34:48;;;;;;;;;;;5.30;99.90;;;;;;5061788;28;20039;-49
2024/01/12 10:37:17;;;;;;;18.88;3.63;;;5.30;99.90;;;;;;5060334;28;19924;-48
2024/01/12 10:39:49;;;;;;;15.45;2.80;;;5.30;99.90;;;;;;5057743;28;20033;-51
2024/01/12 10:42:16;;;;;;;18.27;2.90;;;5.30;99.90;;;;;;5061409;28;20039;-48
2024/01/12 10:44:44;;;;;;;16.00;2.53;;;5.30;99.90;;;;;;5061911;28;20115;-49
2024/01/12 10:47:21;;;;;;;20.58;3.47;;;5.30;99.90;;;;;;5059885;28;20051;-51
2024/01/12 10:50:06;;;;;;;14.52;2.80;;;5.40;99.90;;;;;;5062265;28;20036;-48
2024/01/12 10:52:35;;;;;;;15.95;2.78;;;5.40;99.90;;;;;;5062840;28;20040;-51
2024/01/12 10:55:04;;;;;;;17.27;3.30;;;5.40;99.90;;;;;;5056564;28;20032;-51
2024/01/12 10:57:32;;;;;;;13.23;2.90;;;5.40;99.90;;;;;;5061455;28;20036;-49
2024/01/12 10:59:59;;;;;;;12.27;3.00;;;5.30;99.90;;;;;;5059779;28;20040;-50
2024/01/12 11:02:25;;;;;;;17.58;3.08;;;5.30;99.90;;;;;;5057814;28;20087;-52
2024/01/12 11:04:52;;;;;;;14.30;3.35;;;5.40;99.90;;;;;;5061492;28;20151;-50
2024/01/12 11:07:18;;;;;;;23.13;3.40;;;5.40;99.90;;;;;;5062008;28;20052;-48
2024/01/12 11:09:44;;;;;;;17.88;3.47;;;5.40;99.90;;;;;;5060839;28;20047;-51
2024/01/12 11:12:17;;;;;;;14.32;2.67;;;5.50;99.90;;;;;;5054526;28;20040;-49
2024/01/12 11:14:43;;;;;;;28.90;3.85;;;5.40;99.90;;;;;;5056579;28;20542;-49
2024/01/12 11:17:11;;;;;;;21.08;2.95;;;5.50;99.90;;;;;;5049550;28;20341;-50
2024/01/12 11:19:37;;;;;;;12.57;2.90;;;5.50;99.90;;;;;;5058774;28;20597;-50
2024/01/12 11:22:03;;;;;;;18.83;4.53;;;5.50;99.90;;;;;;5054110;28;20105;-50
2024/01/12 11:24:30;;;;;;;13.88;3.63;;;5.50;99.90;;;;;;5053287;28;20328;-50
2024/01/12 11:26:56;;;;;;;20.67;4.22;;;5.50;99.90;;;;;;5061483;28;20083;-52
2024/01/12 11:29:28;;;;;;;19.90;3.67;;;5.50;99.90;;;;;;5058598;28;20131;-49
2024/01/12 11:31:54;;;;;;;19.17;4.50;;;5.50;99.90;;;;;;5057618;28;20044;-50
2024/01/12 11:34:20;;;;;;;18.48;4.07;;;5.60;99.90;;;;;;5058234;28;20601;-49
2024/01/12 11:36:58;;;;;;;17.20;3.95;;;5.60;99.90;;;;;;5058726;28;20040;-51
2024/01/12 11:39:24;;;;;;;18.77;3.47;;;5.60;99.90;;;;;;5059799;28;20089;-53
2024/01/12 11:41:56;;;;;;;22.45;4.50;;;5.50;99.90;;;;;;5056473;28;20465;-49
2024/01/12 11:44:24;;;;;;;22.77;5.00;;;5.60;99.90;;;;;;5059947;28;20498;-52
2024/01/12 11:46:51;;;;;;;22.63;5.78;;;5.60;99.90;;;;;;5062290;28;20102;-50
2024/01/12 11:49:17;;;;;;;29.95;5.75;;;5.70;99.90;;;;;;5060032;28;20064;-50
2024/01/12 11:51:43;;;;;;;23.30;4.95;;;5.70;99.90;;;;;;5060811;28;20426;-50
2024/01/12 11:54:09;;;;;;;24.00;4.13;;;5.70;99.90;;;;;;5061402;28;20477;-51
2024/01/12 11:56:35;;;;;;;18.95;4.05;;;5.70;99.90;;;;;;5060781;28;20040;-48
2024/01/12 11:59:01;;;;;;;17.33;3.08;;;5.80;99.90;;;;;;5059238;28;20040;-49
2024/01/12 12:01:27;;;;;;;19.70;3.95;;;5.80;99.90;;;;;;5059713;28;20040;-49
2024/01/12 12:03:53;;;;;;;26.90;4.18;;;5.70;99.90;;;;;;5061224;28;20115;-50
2024/01/12 12:06:19;;;;;;;24.58;3.50;;;5.70;99.90;;;;;;5057630;28;20082;-49
2024/01/12 12:08:45;;;;;;;20.52;3.55;;;5.70;99.90;;;;;;5061341;28;20047;-49
2024/01/12 12:11:13;;;;;;;28.80;3.65;;;5.70;99.90;;;;;;5060070;28;20400;-49
2024/01/12 12:13:40;;;;;;;18.55;3.45;;;5.70;99.90;;;;;;5052112;28;20086;-51
2024/01/12 12:16:06;;;;;;;27.20;4.65;;;5.70;99.90;;;;;;5059043;28;20040;-50
2024/01/12 12:18:33;;;;;;;29.42;4.93;;;5.70;99.90;;;;;;5046722;28;20041;-48
2024/01/12 12:21:02;;;;;;;26.25;5.03;;;5.80;99.90;;;;;;5059252;28;20047;-49
2024/01/12 12:23:29;;;;;;;27.95;7.10;;;5.80;99.90;;;;;;5059712;28;20033;-52
2024/01/12 12:25:55;;;;;;;27.98;6.55;;;5.80;99.90;;;;;;5060076;28;20514;-50
2024/01/12 12:28:22;;;;;;;24.42;5.57;;;5.90;99.90;;;;;;5061280;28;20056;-51
2024/01/12 12:30:50;;;;;;;30.13;6.28;;;5.90;99.90;;;;;;5059117;28;20237;-51
2024/01/12 12:33:16;;;;;;;28.77;7.93;;;5.90;99.90;;;;;;5059370;28;20429;-55
2024/01/12 12:35:42;;;;;;;24.27;6.55;;;5.90;99.90;;;;;;5060744;28;20043;-52
2024/01/12 12:38:08;;;;;;;28.20;5.88;;;5.90;99.90;;;;;;5060396;28;20040;-49
2024/01/12 12:40:34;;;;;;;26.30;6.63;;;5.90;99.90;;;;;;5061024;28;20040;-50
2024/01/12 12:43:00;;;;;;;25.70;6.85;;;5.90;99.90;;;;;;5060170;28;20407;-50